createdAt,value
2018-10-12T00:00:11.443Z,12.37
2018-10-12T00:01:46.951Z,12.44
2018-10-12T00:03:22.478Z,12.34
2018-10-12T00:04:57.979Z,12.26
2018-10-12T00:06:33.487Z,12.18
2018-10-12T00:08:09.034Z,12.31
2018-10-12T00:09:44.548Z,12.30
2018-10-12T00:11:20.091Z,12.36
2018-10-12T00:12:55.594Z,12.39
2018-10-12T00:14:31.101Z,12.40
2018-10-12T00:16:06.778Z,12.44
2018-10-12T00:17:42.312Z,12.27
2018-10-12T00:19:17.820Z,12.37
2018-10-12T00:20:53.307Z,12.25
2018-10-12T00:22:28.831Z,12.25
2018-10-12T00:24:04.368Z,12.33
2018-10-12T00:25:39.881Z,12.37
2018-10-12T00:27:15.373Z,12.36
2018-10-12T00:28:51.724Z,12.40
2018-10-12T00:30:27.260Z,12.34
2018-10-12T00:32:02.767Z,12.31
2018-10-12T00:33:38.299Z,12.33
2018-10-12T00:35:13.885Z,12.36
2018-10-12T00:36:49.478Z,12.31
2018-10-12T00:38:25.028Z,12.33
2018-10-12T00:40:00.500Z,12.30
2018-10-12T00:41:36.111Z,12.32
2018-10-12T00:43:11.654Z,12.32
2018-10-12T00:44:47.118Z,12.31
2018-10-12T00:46:22.604Z,12.33
2018-10-12T00:48:01.008Z,12.30
2018-10-12T00:49:36.564Z,12.15
2018-10-12T00:51:12.036Z,12.15
2018-10-12T00:52:47.573Z,12.18
2018-10-12T00:54:23.093Z,12.18
2018-10-12T00:55:58.598Z,12.20
2018-10-12T00:57:34.072Z,12.22
2018-10-12T00:59:09.624Z,12.17
2018-10-12T01:00:45.117Z,12.14
2018-10-12T01:02:20.569Z,12.11
2018-10-12T01:03:56.085Z,12.16
2018-10-12T01:05:31.579Z,12.21
2018-10-12T01:07:07.058Z,12.23
2018-10-12T01:08:42.558Z,12.07
2018-10-12T01:10:18.100Z,12.05
2018-10-12T01:12:03.589Z,12.13
2018-10-12T01:13:39.056Z,12.10
2018-10-12T01:15:14.582Z,12.02
2018-10-12T01:16:50.113Z,12.02
2018-10-12T01:18:25.652Z,12.02
2018-10-12T01:20:01.233Z,12.06
2018-10-12T01:21:36.800Z,12.13
2018-10-12T01:23:12.295Z,12.07
2018-10-12T01:24:47.812Z,11.85
2018-10-12T01:26:23.296Z,11.68
2018-10-12T01:27:58.876Z,11.87
2018-10-12T01:29:34.393Z,11.97
2018-10-12T01:31:09.885Z,12.05
2018-10-12T01:32:50.638Z,12.07
2018-10-12T01:34:26.194Z,12.13
2018-10-12T01:36:01.693Z,12.14
2018-10-12T01:37:37.210Z,12.14
2018-10-12T01:39:12.728Z,12.09
2018-10-12T01:40:48.297Z,12.10
2018-10-12T01:42:23.816Z,12.14
2018-10-12T01:43:59.331Z,12.02
2018-10-12T01:45:34.843Z,11.98
2018-10-12T01:47:10.398Z,11.91
2018-10-12T01:48:45.896Z,11.87
2018-10-12T01:50:21.426Z,11.81
2018-10-12T01:51:56.941Z,11.76
2018-10-12T01:53:32.464Z,11.75
2018-10-12T01:55:08.023Z,11.73
2018-10-12T01:56:43.571Z,11.70
2018-10-12T01:58:19.099Z,11.61
2018-10-12T01:59:54.664Z,11.64
2018-10-12T02:01:30.189Z,11.67
2018-10-12T02:03:05.708Z,11.74
2018-10-12T02:04:41.258Z,11.87
2018-10-12T02:06:16.884Z,11.79
2018-10-12T02:07:52.378Z,11.84
2018-10-12T02:09:27.928Z,11.80
2018-10-12T02:11:03.426Z,11.91
2018-10-12T02:12:38.948Z,12.01
2018-10-12T02:14:14.477Z,12.04
2018-10-12T02:15:50.013Z,12.06
2018-10-12T02:17:25.524Z,12.13
2018-10-12T02:19:01.056Z,12.16
2018-10-12T02:20:36.575Z,12.20
2018-10-12T02:22:12.099Z,12.20
2018-10-12T02:23:47.595Z,12.23
2018-10-12T02:25:23.131Z,12.17
2018-10-12T02:26:58.611Z,12.22
2018-10-12T02:28:34.079Z,12.28
2018-10-12T02:30:09.984Z,12.20
2018-10-12T02:31:45.498Z,12.17
2018-10-12T02:33:20.972Z,12.24
2018-10-12T02:34:56.523Z,12.27
2018-10-12T02:36:32.088Z,12.31
2018-10-12T02:38:07.579Z,12.32
2018-10-12T02:39:43.098Z,12.26
2018-10-12T02:41:18.597Z,12.31
2018-10-12T02:42:54.144Z,12.33
2018-10-12T02:44:29.699Z,12.39
2018-10-12T02:46:05.185Z,12.38
2018-10-12T02:47:40.709Z,12.43
2018-10-12T02:49:16.389Z,12.48
2018-10-12T02:50:51.880Z,12.51
2018-10-12T02:52:27.353Z,12.42
2018-10-12T02:54:02.856Z,12.46
2018-10-12T02:55:38.403Z,12.46
2018-10-12T02:57:13.879Z,12.53
2018-10-12T02:58:49.968Z,12.60
2018-10-12T03:00:25.476Z,12.61
2018-10-12T03:02:00.983Z,12.61
2018-10-12T03:03:36.475Z,12.64
2018-10-12T03:05:11.972Z,12.65
2018-10-12T03:06:47.438Z,12.73
2018-10-12T03:08:22.935Z,12.78
2018-10-12T03:09:58.458Z,12.77
2018-10-12T03:11:33.923Z,12.81
2018-10-12T03:13:09.400Z,12.77
2018-10-12T03:14:44.901Z,12.78
2018-10-12T03:16:20.380Z,12.53
2018-10-12T03:17:55.993Z,12.84
2018-10-12T03:19:31.568Z,12.85
2018-10-12T03:21:07.285Z,12.84
2018-10-12T03:22:42.769Z,12.80
2018-10-12T03:24:18.267Z,12.76
2018-10-12T03:25:53.788Z,12.72
2018-10-12T03:27:29.359Z,12.67
2018-10-12T03:29:04.846Z,12.59
2018-10-12T03:30:40.313Z,12.54
2018-10-12T03:32:15.817Z,12.40
2018-10-12T03:33:51.361Z,12.38
2018-10-12T03:35:26.865Z,12.45
2018-10-12T03:37:02.372Z,12.55
2018-10-12T03:38:37.850Z,12.62
2018-10-12T03:40:13.348Z,12.55
2018-10-12T03:41:49.005Z,12.61
2018-10-12T03:43:24.626Z,12.73
2018-10-12T03:45:00.105Z,12.84
2018-10-12T03:46:35.620Z,13.01
2018-10-12T03:48:11.204Z,13.10
2018-10-12T03:49:46.715Z,13.21
2018-10-12T03:51:22.247Z,13.25
2018-10-12T03:52:57.763Z,13.22
2018-10-12T03:54:33.255Z,13.10
2018-10-12T03:56:09.091Z,13.05
2018-10-12T03:57:44.591Z,12.98
2018-10-12T03:59:20.087Z,13.03
2018-10-12T04:00:55.587Z,13.15
2018-10-12T04:02:31.098Z,13.21
2018-10-12T04:04:06.613Z,13.29
2018-10-12T04:05:42.076Z,13.30
2018-10-12T04:07:17.549Z,13.35
2018-10-12T04:08:53.024Z,13.20
2018-10-12T04:10:28.605Z,13.05
2018-10-12T04:12:04.091Z,12.90
2018-10-12T04:13:39.611Z,12.74
2018-10-12T04:15:15.109Z,12.81
2018-10-12T04:16:50.706Z,12.86
2018-10-12T04:18:26.231Z,12.95
2018-10-12T04:20:01.748Z,13.02
2018-10-12T04:21:37.332Z,12.97
2018-10-12T04:23:12.800Z,12.99
2018-10-12T04:24:48.306Z,13.16
2018-10-12T04:26:23.832Z,13.19
2018-10-12T04:27:59.345Z,13.32
2018-10-12T04:29:34.823Z,13.45
2018-10-12T04:31:10.333Z,13.52
2018-10-12T04:32:45.814Z,13.57
2018-10-12T04:34:21.424Z,13.61
2018-10-12T04:35:56.965Z,13.65
2018-10-12T04:37:32.512Z,13.58
2018-10-12T04:39:19.451Z,13.52
2018-10-12T04:41:02.447Z,13.54
2018-10-12T04:42:38.099Z,13.53
2018-10-12T04:44:13.647Z,13.60
2018-10-12T04:45:49.184Z,13.67
2018-10-12T04:47:27.090Z,13.68
2018-10-12T04:49:03.534Z,13.72
2018-10-12T04:50:39.039Z,13.70
2018-10-12T04:52:15.185Z,13.73
2018-10-12T04:53:50.809Z,13.76
2018-10-12T04:55:26.269Z,13.70
2018-10-12T04:57:01.758Z,13.71
2018-10-12T04:58:37.313Z,13.77
2018-10-12T05:00:12.890Z,13.75
2018-10-12T05:01:48.501Z,13.63
2018-10-12T05:03:23.995Z,13.58
2018-10-12T05:04:59.472Z,13.63
2018-10-12T05:06:35.017Z,13.63
2018-10-12T05:08:10.475Z,13.57
2018-10-12T05:09:45.991Z,13.67
2018-10-12T05:11:21.499Z,13.65
2018-10-12T05:12:57.026Z,13.63
2018-10-12T05:14:32.522Z,13.71
2018-10-12T05:16:08.139Z,13.75
2018-10-12T05:17:43.599Z,13.73
2018-10-12T05:19:19.204Z,13.75
2018-10-12T05:20:54.731Z,13.79
2018-10-12T05:22:30.235Z,13.82
2018-10-12T05:24:05.754Z,13.85
2018-10-12T05:25:41.323Z,13.88
2018-10-12T05:27:16.900Z,13.97
2018-10-12T05:28:52.384Z,14.02
2018-10-12T05:30:27.899Z,14.05
2018-10-12T05:32:03.417Z,14.10
2018-10-12T05:33:38.900Z,14.07
2018-10-12T05:35:14.389Z,14.08
2018-10-12T05:36:49.919Z,14.12
2018-10-12T05:38:26.663Z,14.19
2018-10-12T05:40:02.164Z,14.27
2018-10-12T05:41:37.670Z,14.35
2018-10-12T05:43:14.675Z,14.46
2018-10-12T05:44:50.240Z,14.43
2018-10-12T05:46:25.716Z,14.55
2018-10-12T05:48:12.599Z,14.58
2018-10-12T05:49:59.762Z,14.71
2018-10-12T05:51:35.258Z,14.75
2018-10-12T05:53:10.805Z,14.83
2018-10-12T05:54:46.299Z,14.88
2018-10-12T05:56:30.799Z,14.92
2018-10-12T05:58:06.355Z,14.94
2018-10-12T05:59:41.840Z,14.97
2018-10-12T06:01:17.395Z,14.97
2018-10-12T06:02:52.908Z,14.99
2018-10-12T06:04:28.411Z,15.03
2018-10-12T06:06:04.017Z,15.00
2018-10-12T06:07:39.618Z,14.96
2018-10-12T06:09:15.087Z,14.95
2018-10-12T06:10:50.964Z,15.00
2018-10-12T06:12:26.484Z,15.04
2018-10-12T06:14:02.044Z,14.97
2018-10-12T06:15:37.614Z,14.94
2018-10-12T06:17:13.119Z,14.97
2018-10-12T06:18:48.720Z,15.02
2018-10-12T06:20:24.257Z,15.08
2018-10-12T06:21:59.760Z,15.15
2018-10-12T06:23:35.275Z,15.14
2018-10-12T06:25:10.762Z,15.15
2018-10-12T06:26:46.248Z,15.24
2018-10-12T06:28:21.764Z,15.25
2018-10-12T06:29:57.312Z,15.33
2018-10-12T06:31:32.778Z,15.38
2018-10-12T06:33:08.287Z,15.37
2018-10-12T06:34:43.945Z,15.40
2018-10-12T06:36:19.440Z,15.41
2018-10-12T06:37:55.079Z,15.33
2018-10-12T06:39:30.587Z,15.28
2018-10-12T06:41:06.159Z,14.99
2018-10-12T06:42:41.778Z,15.30
2018-10-12T06:44:17.303Z,15.37
2018-10-12T06:45:52.824Z,15.44
2018-10-12T06:47:28.368Z,15.44
2018-10-12T06:49:03.871Z,15.45
2018-10-12T06:50:40.179Z,15.39
2018-10-12T06:52:15.685Z,15.33
2018-10-12T06:53:51.311Z,15.31
2018-10-12T06:55:26.770Z,15.28
2018-10-12T06:57:02.306Z,15.29
2018-10-12T06:58:37.776Z,15.31
2018-10-12T07:00:13.374Z,15.42
2018-10-12T07:01:48.896Z,15.51
2018-10-12T07:03:24.378Z,15.60
2018-10-12T07:04:59.855Z,15.72
2018-10-12T07:06:35.398Z,15.82
2018-10-12T07:08:10.869Z,15.94
2018-10-12T07:09:46.444Z,15.98
2018-10-12T07:11:21.969Z,16.00
2018-10-12T07:12:57.539Z,16.07
2018-10-12T07:14:33.032Z,16.17
2018-10-12T07:16:09.101Z,16.25
2018-10-12T07:17:44.599Z,16.35
2018-10-12T07:19:20.158Z,16.44
2018-10-12T07:20:55.717Z,16.46
2018-10-12T07:22:31.172Z,16.56
2018-10-12T07:24:06.711Z,16.68
2018-10-12T07:25:42.299Z,16.74
2018-10-12T07:27:17.854Z,16.78
2018-10-12T07:28:53.402Z,16.91
2018-10-12T07:30:28.866Z,17.00
2018-10-12T07:32:04.434Z,17.10
2018-10-12T07:33:39.955Z,17.13
2018-10-12T07:35:15.437Z,17.17
2018-10-12T07:36:51.718Z,17.23
2018-10-12T07:38:28.357Z,17.31
2018-10-12T07:40:05.628Z,17.44
2018-10-12T07:41:43.737Z,17.49
2018-10-12T07:43:26.808Z,17.51
2018-10-12T07:45:03.999Z,17.57
2018-10-12T07:46:42.760Z,17.62
2018-10-12T07:48:23.142Z,17.64
2018-10-12T07:50:02.669Z,17.71
2018-10-12T07:51:39.415Z,17.79
2018-10-12T07:53:17.965Z,17.87
2018-10-12T07:54:54.953Z,17.94
2018-10-12T07:56:30.606Z,17.98
2018-10-12T07:58:06.780Z,18.06
2018-10-12T07:59:47.586Z,18.15
2018-10-12T08:01:23.727Z,18.19
2018-10-12T08:03:01.606Z,18.29
2018-10-12T08:04:38.964Z,18.30
2018-10-12T08:06:18.389Z,18.36
2018-10-12T08:07:56.054Z,18.42
2018-10-12T08:09:32.004Z,18.54
2018-10-12T08:11:11.361Z,18.63
2018-10-12T08:12:47.775Z,18.61
2018-10-12T08:14:26.015Z,18.67
2018-10-12T08:16:06.183Z,18.71
2018-10-12T08:17:42.879Z,18.75
2018-10-12T08:19:28.750Z,18.88
2018-10-12T08:21:05.455Z,19.04
2018-10-12T08:22:41.373Z,19.07
2018-10-12T08:24:18.285Z,19.18
2018-10-12T08:25:59.088Z,19.17
2018-10-12T08:27:42.297Z,19.32
2018-10-12T08:29:26.711Z,19.40
2018-10-12T08:31:02.921Z,19.54
2018-10-12T08:32:40.026Z,19.58
2018-10-12T08:34:17.041Z,19.62
2018-10-12T08:35:56.246Z,19.70
2018-10-12T08:37:32.091Z,19.78
2018-10-12T08:39:13.551Z,19.91
2018-10-12T08:40:57.039Z,19.96
2018-10-12T08:42:40.441Z,20.08
2018-10-12T08:44:18.179Z,20.06
2018-10-12T08:46:04.661Z,20.02
2018-10-12T08:47:43.956Z,20.18
2018-10-12T08:49:20.115Z,20.27
2018-10-12T08:50:57.555Z,20.33
2018-10-12T08:52:33.567Z,20.34
2018-10-12T08:54:13.697Z,20.26
2018-10-12T08:56:00.234Z,20.28
2018-10-12T08:57:38.248Z,20.41
2018-10-12T08:59:15.888Z,20.41
2018-10-12T09:00:54.919Z,20.51
2018-10-12T09:02:34.824Z,20.59
2018-10-12T09:04:12.669Z,20.65
2018-10-12T09:05:51.819Z,20.71
2018-10-12T09:07:27.717Z,20.78
2018-10-12T09:09:07.105Z,20.87
2018-10-12T09:10:43.242Z,20.98
2018-10-12T09:12:23.714Z,21.01
2018-10-12T09:14:00.458Z,21.06
2018-10-12T09:15:39.421Z,21.08
2018-10-12T09:17:17.553Z,21.11
2018-10-12T09:18:55.076Z,21.15
2018-10-12T09:20:37.381Z,21.19
2018-10-12T09:22:13.556Z,21.31
2018-10-12T09:23:51.180Z,21.38
2018-10-12T09:25:40.550Z,21.41
2018-10-12T09:27:18.286Z,21.38
2018-10-12T09:29:11.908Z,21.51
2018-10-12T09:30:52.229Z,21.55
2018-10-12T09:32:30.878Z,21.50
2018-10-12T09:34:17.036Z,21.43
2018-10-12T09:35:58.175Z,21.47
2018-10-12T09:37:36.812Z,21.56
2018-10-12T09:39:15.043Z,21.60
2018-10-12T09:40:55.980Z,21.61
2018-10-12T09:42:33.967Z,21.71
2018-10-12T09:44:10.569Z,21.72
2018-10-12T09:46:02.781Z,21.81
2018-10-12T09:47:40.999Z,21.78
2018-10-12T09:49:18.253Z,21.72
2018-10-12T09:50:57.269Z,21.70
2018-10-12T09:52:33.445Z,21.67
2018-10-12T09:55:57.341Z,21.78
2018-10-12T09:57:37.741Z,21.86
2018-10-12T09:59:25.196Z,21.84
2018-10-12T10:01:08.169Z,21.92
2018-10-12T10:04:52.240Z,22.02
2018-10-12T10:06:29.383Z,22.10
2018-10-12T10:08:19.084Z,21.99
2018-10-12T10:09:55.396Z,22.00
2018-10-12T10:11:40.143Z,22.04
2018-10-12T10:13:20.992Z,22.04
2018-10-12T10:15:04.103Z,21.99
2018-10-12T10:16:46.210Z,22.05
2018-10-12T10:18:23.545Z,22.15
2018-10-12T10:20:01.751Z,22.16
2018-10-12T10:21:44.710Z,22.20
2018-10-12T10:23:25.617Z,22.23
2018-10-12T10:25:02.587Z,22.19
2018-10-12T10:26:42.782Z,22.24
2018-10-12T10:28:19.989Z,22.30
2018-10-12T10:29:58.095Z,22.47
2018-10-12T10:31:35.100Z,22.46
2018-10-12T10:33:14.331Z,22.37
2018-10-12T10:34:54.201Z,22.43
2018-10-12T10:36:33.595Z,22.45
2018-10-12T10:38:11.775Z,22.47
2018-10-12T10:39:58.494Z,22.60
2018-10-12T10:41:36.920Z,22.73
2018-10-12T10:43:14.219Z,22.86
2018-10-12T10:44:51.448Z,22.90
2018-10-12T10:46:28.504Z,22.95
2018-10-12T10:48:07.306Z,22.91
2018-10-12T10:49:44.329Z,22.95
2018-10-12T10:51:24.041Z,22.99
2018-10-12T10:53:00.713Z,23.01
2018-10-12T10:54:40.532Z,23.02
2018-10-12T10:56:21.561Z,23.05
2018-10-12T10:57:57.352Z,22.99
2018-10-12T10:59:36.126Z,23.01
2018-10-12T11:01:17.604Z,23.04
2018-10-12T11:02:53.411Z,23.09
2018-10-12T11:04:33.603Z,23.02
2018-10-12T11:06:14.657Z,23.15
2018-10-12T11:07:51.629Z,23.28
2018-10-12T11:09:28.742Z,23.31
2018-10-12T11:11:05.412Z,23.33
2018-10-12T11:12:41.462Z,23.33
2018-10-12T11:14:24.022Z,23.31
2018-10-12T11:16:00.792Z,23.21
2018-10-12T11:17:41.141Z,23.27
2018-10-12T11:19:17.863Z,23.24
2018-10-12T11:20:53.606Z,23.39
2018-10-12T11:22:30.737Z,23.47
2018-10-12T11:24:09.549Z,23.58
2018-10-12T11:25:48.444Z,23.55
2018-10-12T11:29:09.535Z,23.51
2018-10-12T11:30:47.441Z,23.62
2018-10-12T11:32:25.904Z,23.60
2018-10-12T11:34:03.066Z,23.67
2018-10-12T11:35:43.224Z,23.74
2018-10-12T11:37:22.426Z,23.79
2018-10-12T11:39:00.405Z,23.70
2018-10-12T11:40:38.050Z,23.78
2018-10-12T11:42:14.001Z,23.77
2018-10-12T11:43:52.572Z,23.82
2018-10-12T11:45:33.622Z,23.84
2018-10-12T11:47:11.948Z,23.88
2018-10-12T11:48:48.159Z,23.90
2018-10-12T11:50:24.762Z,23.96
2018-10-12T11:52:05.868Z,23.98
2018-10-12T11:53:47.228Z,23.16
2018-10-12T11:55:27.187Z,24.19
2018-10-12T11:57:08.982Z,24.12
2018-10-12T12:00:32.675Z,24.04
2018-10-12T12:02:11.719Z,24.11
2018-10-12T12:03:54.653Z,24.16
2018-10-12T12:05:30.675Z,24.28
2018-10-12T12:07:08.144Z,24.26
2018-10-12T12:08:45.792Z,24.24
2018-10-12T12:10:25.642Z,24.23
2018-10-12T12:12:07.502Z,24.15
2018-10-12T12:13:49.392Z,24.20
2018-10-12T12:15:25.093Z,24.36
2018-10-12T12:17:05.325Z,24.38
2018-10-12T12:18:43.507Z,24.37
2018-10-12T12:20:19.480Z,24.35
2018-10-12T12:21:56.787Z,24.38
2018-10-12T12:23:56.455Z,24.35
2018-10-12T12:25:33.089Z,24.39
2018-10-12T12:27:13.573Z,24.48
2018-10-12T12:28:51.727Z,24.52
2018-10-12T12:30:30.139Z,24.55
2018-10-12T12:32:07.688Z,24.51
2018-10-12T12:33:48.305Z,24.49
2018-10-12T12:35:25.798Z,24.32
2018-10-12T12:37:01.928Z,24.40
2018-10-12T12:38:43.510Z,24.38
2018-10-12T12:40:23.484Z,24.51
2018-10-12T12:42:04.600Z,24.49
2018-10-12T12:43:42.832Z,24.48
2018-10-12T12:45:21.128Z,24.41
2018-10-12T12:46:57.679Z,24.37
2018-10-12T12:48:40.366Z,24.48
2018-10-12T12:50:16.934Z,24.53
2018-10-12T12:51:59.705Z,24.53
2018-10-12T12:53:35.454Z,24.48
2018-10-12T12:55:12.061Z,24.44
2018-10-12T12:56:48.136Z,24.63
2018-10-12T12:58:33.475Z,24.62
2018-10-12T13:00:25.814Z,24.42
2018-10-12T13:02:03.864Z,24.67
2018-10-12T13:03:42.363Z,24.66
2018-10-12T13:05:18.645Z,23.57
2018-10-12T13:06:54.296Z,24.54
2018-10-12T13:08:29.928Z,24.56
2018-10-12T13:10:08.600Z,24.59
2018-10-12T13:11:44.176Z,24.70
2018-10-12T13:13:20.820Z,24.67
2018-10-12T13:14:59.909Z,24.69
2018-10-12T13:16:40.929Z,24.72
2018-10-12T13:18:17.658Z,24.78
2018-10-12T13:20:00.038Z,24.79
2018-10-12T13:21:38.474Z,24.90
2018-10-12T13:23:15.988Z,24.87
2018-10-12T13:24:51.831Z,24.91
2018-10-12T13:26:29.197Z,24.84
2018-10-12T13:28:05.464Z,24.72
2018-10-12T13:29:42.865Z,24.75
2018-10-12T13:31:20.684Z,24.73
2018-10-12T13:32:57.376Z,24.73
2018-10-12T13:34:41.943Z,24.70
2018-10-12T13:36:20.603Z,24.11
2018-10-12T13:37:57.667Z,23.90
2018-10-12T13:39:37.548Z,24.68
2018-10-12T13:41:15.322Z,24.55
2018-10-12T13:42:55.520Z,24.52
2018-10-12T13:44:33.045Z,24.54
2018-10-12T13:46:10.590Z,24.62
2018-10-12T13:47:46.737Z,24.44
2018-10-12T13:49:25.508Z,24.41
2018-10-12T13:53:08.541Z,24.33
2018-10-12T13:54:47.252Z,24.31
2018-10-12T13:56:24.926Z,24.32
2018-10-12T13:58:02.653Z,24.46
2018-10-12T14:01:45.586Z,24.34
2018-10-12T14:03:22.227Z,24.31
2018-10-12T14:04:59.248Z,24.36
2018-10-12T14:06:37.274Z,24.33
2018-10-12T14:08:14.845Z,24.30
2018-10-12T14:09:50.690Z,24.17
2018-10-12T14:11:26.737Z,23.02
2018-10-12T14:13:09.177Z,23.75
2018-10-12T14:14:46.713Z,23.94
2018-10-12T14:16:23.737Z,24.07
2018-10-12T14:18:02.944Z,24.02
2018-10-12T14:19:40.614Z,23.97
2018-10-12T14:21:18.901Z,24.00
2018-10-12T14:22:59.683Z,23.96
2018-10-12T14:24:38.300Z,23.96
2018-10-12T14:26:16.509Z,23.55
2018-10-12T14:27:54.871Z,23.28
2018-10-12T14:29:30.537Z,23.56
2018-10-12T14:31:06.204Z,23.76
2018-10-12T14:32:43.396Z,23.91
2018-10-12T14:34:22.296Z,23.59
2018-10-12T14:35:58.910Z,23.44
2018-10-12T14:37:37.154Z,23.31
2018-10-12T14:39:13.741Z,23.28
2018-10-12T14:40:51.504Z,23.20
2018-10-12T14:42:32.713Z,23.10
2018-10-12T14:44:11.260Z,23.19
2018-10-12T14:45:49.303Z,23.28
2018-10-12T14:47:28.880Z,23.42
2018-10-12T14:49:08.751Z,23.40
2018-10-12T14:50:46.875Z,23.44
2018-10-12T14:52:29.187Z,23.24
2018-10-12T14:54:05.200Z,23.17
2018-10-12T14:55:40.822Z,23.12
2018-10-12T14:57:18.090Z,22.85
2018-10-12T14:58:55.229Z,22.92
2018-10-12T15:00:33.693Z,22.76
2018-10-12T15:02:13.512Z,22.63
2018-10-12T15:03:49.881Z,22.65
2018-10-12T15:05:26.775Z,22.59
2018-10-12T15:07:02.903Z,22.61
2018-10-12T15:08:40.957Z,22.60
2018-10-12T15:10:17.493Z,22.63
2018-10-12T15:11:53.143Z,22.66
2018-10-12T15:15:25.557Z,22.65
2018-10-12T15:17:01.248Z,22.69
2018-10-12T15:18:36.919Z,22.76
2018-10-12T15:20:13.477Z,22.63
2018-10-12T15:21:53.764Z,22.61
2018-10-12T15:23:32.725Z,22.45
2018-10-12T15:25:09.561Z,22.51
2018-10-12T15:26:46.210Z,22.40
2018-10-12T15:28:22.309Z,22.39
2018-10-12T15:30:02.762Z,22.34
2018-10-12T15:31:38.557Z,22.50
2018-10-12T15:33:16.255Z,22.50
2018-10-12T15:34:55.838Z,22.37
2018-10-12T15:36:33.377Z,22.44
2018-10-12T15:38:10.587Z,22.37
2018-10-12T15:39:48.670Z,22.24
2018-10-12T15:41:25.838Z,22.09
2018-10-12T15:43:03.460Z,22.06
2018-10-12T15:44:39.633Z,21.91
2018-10-12T15:46:15.756Z,21.83
2018-10-12T15:47:53.348Z,21.74
2018-10-12T15:49:30.925Z,21.61
2018-10-12T15:51:12.417Z,21.52
2018-10-12T15:52:50.599Z,21.44
2018-10-12T15:54:29.577Z,21.35
2018-10-12T15:56:10.927Z,21.37
2018-10-12T15:57:47.443Z,21.42
2018-10-12T15:59:23.816Z,21.32
2018-10-12T16:01:01.361Z,21.22
2018-10-12T16:02:37.301Z,21.24
2018-10-12T16:04:14.056Z,21.24
2018-10-12T16:05:50.409Z,21.21
2018-10-12T16:07:26.848Z,21.14
2018-10-12T16:09:02.785Z,21.13
2018-10-12T16:10:40.861Z,21.16
2018-10-12T16:12:17.039Z,21.16
2018-10-12T16:13:52.780Z,21.15
2018-10-12T16:15:29.120Z,21.08
2018-10-12T16:17:05.273Z,20.99
2018-10-12T16:18:41.004Z,20.94
2018-10-12T16:20:17.022Z,20.55
2018-10-12T16:21:54.078Z,20.88
2018-10-12T16:23:30.857Z,20.85
2018-10-12T16:25:25.318Z,20.76
2018-10-12T16:27:02.820Z,20.72
2018-10-12T16:28:40.521Z,20.64
2018-10-12T16:30:18.177Z,20.60
2018-10-12T16:31:54.309Z,20.58
2018-10-12T16:33:31.525Z,20.58
2018-10-12T16:35:09.752Z,20.54
2018-10-12T16:38:53.092Z,20.49
2018-10-12T16:40:29.953Z,20.48
2018-10-12T16:42:10.602Z,20.46
2018-10-12T16:43:51.008Z,20.42
2018-10-12T16:45:27.252Z,20.42
2018-10-12T16:47:05.149Z,20.38
2018-10-12T16:48:41.550Z,20.36
2018-10-12T16:50:17.583Z,20.37
2018-10-12T16:51:55.432Z,20.42
2018-10-12T16:53:30.973Z,20.38
2018-10-12T16:55:08.362Z,20.35
2018-10-12T16:56:45.068Z,20.28
2018-10-12T16:58:22.201Z,20.37
2018-10-12T16:59:58.329Z,20.38
2018-10-12T17:01:35.913Z,20.39
2018-10-12T17:03:13.328Z,20.40
2018-10-12T17:04:53.860Z,20.31
2018-10-12T17:06:30.804Z,20.32
2018-10-12T17:08:08.408Z,20.30
2018-10-12T17:09:44.830Z,20.27
2018-10-12T17:11:21.444Z,20.28
2018-10-12T17:12:57.296Z,20.34
2018-10-12T17:14:34.950Z,20.30
2018-10-12T17:16:11.222Z,20.28
2018-10-12T17:17:49.019Z,20.25
2018-10-12T17:19:27.943Z,20.27
2018-10-12T17:21:06.871Z,20.22
2018-10-12T17:22:44.868Z,19.98
2018-10-12T17:24:21.053Z,19.99
2018-10-12T17:25:58.510Z,20.05
2018-10-12T17:27:34.186Z,20.05
2018-10-12T17:29:11.976Z,19.80
2018-10-12T17:30:48.731Z,19.84
2018-10-12T17:32:25.993Z,19.83
2018-10-12T17:34:05.944Z,19.83
2018-10-12T17:35:46.092Z,19.78
2018-10-12T17:37:22.488Z,19.78
2018-10-12T17:39:00.625Z,19.73
2018-10-12T17:40:37.853Z,19.67
2018-10-12T17:42:16.844Z,19.62
2018-10-12T17:43:54.448Z,19.60
2018-10-12T17:45:34.158Z,19.64
2018-10-12T17:47:13.220Z,19.61
2018-10-12T17:48:49.972Z,19.68
2018-10-12T17:50:25.639Z,19.66
2018-10-12T17:52:10.845Z,19.61
2018-10-12T17:53:48.989Z,19.48
2018-10-12T17:55:25.159Z,19.39
2018-10-12T17:57:02.269Z,19.38
2018-10-12T17:58:38.420Z,19.36
2018-10-12T18:00:14.159Z,19.33
2018-10-12T18:01:51.171Z,19.35
2018-10-12T18:03:26.913Z,19.34
2018-10-12T18:05:04.050Z,19.30
2018-10-12T18:06:41.170Z,19.23
2018-10-12T18:08:18.565Z,19.26
2018-10-12T18:09:56.127Z,19.26
2018-10-12T18:11:39.259Z,19.21
2018-10-12T18:13:24.178Z,19.17
2018-10-12T18:17:14.043Z,19.13
2018-10-12T18:18:51.034Z,19.10
2018-10-12T18:20:29.192Z,19.03
2018-10-12T18:24:04.329Z,19.02
2018-10-12T18:25:43.451Z,18.97
2018-10-12T18:27:28.146Z,18.86
2018-10-12T18:29:04.415Z,18.85
2018-10-12T18:30:41.903Z,18.82
2018-10-12T18:32:21.918Z,18.80
2018-10-12T18:34:02.428Z,18.73
2018-10-12T18:37:26.315Z,18.68
2018-10-12T18:39:03.365Z,18.64
2018-10-12T18:40:44.115Z,18.62
2018-10-12T18:42:22.096Z,18.58
2018-10-12T18:43:59.567Z,18.53
2018-10-12T18:45:36.008Z,18.46
2018-10-12T18:47:15.761Z,18.44
2018-10-12T18:48:51.909Z,18.38
2018-10-12T18:50:27.878Z,18.36
2018-10-12T18:53:50.768Z,18.31
2018-10-12T18:55:29.816Z,18.26
2018-10-12T18:57:09.093Z,18.22
2018-10-12T18:59:04.739Z,18.18
2018-10-12T19:00:42.115Z,18.18
2018-10-12T19:02:21.214Z,18.17
2018-10-12T19:03:59.454Z,18.12
2018-10-12T19:05:43.713Z,18.07
2018-10-12T19:07:24.006Z,17.43
2018-10-12T19:09:00.860Z,18.15
2018-10-12T19:10:38.715Z,18.17
2018-10-12T19:12:15.737Z,18.15
2018-10-12T19:13:59.046Z,18.12
2018-10-12T19:15:36.313Z,18.05
2018-10-12T19:17:14.610Z,18.07
2018-10-12T19:18:51.528Z,18.06
2018-10-12T19:20:27.745Z,18.01
2018-10-12T19:22:07.842Z,18.00
2018-10-12T19:23:45.352Z,18.04
2018-10-12T19:25:21.017Z,18.00
2018-10-12T19:26:57.953Z,18.01
2018-10-12T19:28:34.652Z,17.96
2018-10-12T19:30:11.259Z,17.96
2018-10-12T19:31:47.144Z,17.94
2018-10-12T19:33:28.095Z,17.85
2018-10-12T19:35:07.107Z,17.88
2018-10-12T19:36:47.131Z,17.90
2018-10-12T19:38:26.771Z,17.90
2018-10-12T19:40:03.421Z,17.87
2018-10-12T19:41:40.524Z,17.85
2018-10-12T19:43:19.455Z,17.90
2018-10-12T19:44:56.852Z,17.89
2018-10-12T19:46:33.560Z,17.79
2018-10-12T19:48:12.981Z,17.83
2018-10-12T19:49:49.658Z,17.82
2018-10-12T19:51:30.002Z,17.77
2018-10-12T19:53:05.970Z,17.71
2018-10-12T19:54:44.200Z,17.78
2018-10-12T19:56:26.116Z,17.71
2018-10-12T19:58:02.526Z,17.64
2018-10-12T19:59:38.847Z,17.62
2018-10-12T20:01:20.950Z,17.55
2018-10-12T20:02:56.913Z,17.49
2018-10-12T20:04:33.108Z,17.48
2018-10-12T20:06:10.096Z,17.44
2018-10-12T20:07:49.081Z,17.41
2018-10-12T20:09:30.642Z,17.40
2018-10-12T20:11:07.835Z,17.37
2018-10-12T20:12:44.299Z,16.93
2018-10-12T20:14:21.385Z,17.38
2018-10-12T20:16:01.548Z,17.38
2018-10-12T20:17:37.808Z,17.24
2018-10-12T20:19:13.581Z,17.19
2018-10-12T20:20:50.235Z,17.26
2018-10-12T20:22:30.369Z,17.29
2018-10-12T20:24:09.152Z,17.25
2018-10-12T20:25:44.699Z,17.26
2018-10-12T20:27:22.072Z,17.25
2018-10-12T20:28:58.705Z,17.26
2018-10-12T20:30:36.462Z,17.23
2018-10-12T20:32:13.483Z,17.28
2018-10-12T20:33:50.158Z,17.18
2018-10-12T20:35:27.724Z,17.11
2018-10-12T20:37:06.676Z,17.12
2018-10-12T20:38:44.173Z,17.09
2018-10-12T20:40:36.021Z,17.10
2018-10-12T20:42:14.180Z,17.02
2018-10-12T20:43:49.835Z,16.99
2018-10-12T20:45:25.494Z,16.94
2018-10-12T20:47:02.703Z,16.91
2018-10-12T20:48:42.850Z,16.87
2018-10-12T20:50:20.636Z,16.91
2018-10-12T20:51:57.192Z,16.76
2018-10-12T20:53:33.801Z,16.67
2018-10-12T20:55:10.062Z,16.62
2018-10-12T20:56:46.237Z,16.58
2018-10-12T20:58:23.450Z,16.56
2018-10-12T21:00:00.871Z,16.58
2018-10-12T21:01:37.822Z,16.55
2018-10-12T21:03:17.497Z,16.61
2018-10-12T21:04:53.244Z,16.69
2018-10-12T21:06:29.168Z,16.71
2018-10-12T21:08:07.507Z,16.71
2018-10-12T21:09:45.968Z,16.69
2018-10-12T21:11:23.317Z,16.66
2018-10-12T21:12:59.839Z,16.56
2018-10-12T21:14:38.090Z,16.49
2018-10-12T21:16:14.967Z,16.52
2018-10-12T21:17:55.586Z,16.49